sensor_id;sensor_type;location;lat;lon;timestamp;pressure;altitude;pressure_sealevel;temperature
69857;BMP280;57147;53.582;10.112;2024-01-27T00:01:01;102459.34;;;4.68
69857;BMP280;57147;53.582;10.112;2024-01-27T00:06:02;102500.97;;;4.91
69857;BMP280;57147;53.582;10.112;2024-01-27T00:11:02;102506.25;;;4.91
69857;BMP280;57147;53.582;10.112;2024-01-27T00:16:02;102500.16;;;4.90
69857;BMP280;57147;53.582;10.112;2024-01-27T00:21:04;102495.31;;;4.94
69857;BMP280;57147;53.582;10.112;2024-01-27T00:26:04;102514.75;;;4.93
69857;BMP280;57147;53.582;10.112;2024-01-27T00:31:05;102516.13;;;5.02
69857;BMP280;57147;53.582;10.112;2024-01-27T00:36:06;102524.44;;;4.99
69857;BMP280;57147;53.582;10.112;2024-01-27T00:41:06;102524.84;;;5.02
69857;BMP280;57147;53.582;10.112;2024-01-27T00:46:07;102539.03;;;4.95
69857;BMP280;57147;53.582;10.112;2024-01-27T00:51:07;102537.81;;;4.97
69857;BMP280;57147;53.582;10.112;2024-01-27T00:56:07;102547.13;;;5.00
69857;BMP280;57147;53.582;10.112;2024-01-27T01:01:13;102556.25;;;5.04
69857;BMP280;57147;53.582;10.112;2024-01-27T01:06:14;102555.44;;;5.10
69857;BMP280;57147;53.582;10.112;2024-01-27T01:11:14;102553.19;;;5.07
69857;BMP280;57147;53.582;10.112;2024-01-27T01:16:14;102559.66;;;5.11
69857;BMP280;57147;53.582;10.112;2024-01-27T01:21:14;102562.53;;;5.10
69857;BMP280;57147;53.582;10.112;2024-01-27T01:26:15;102556.00;;;5.12
69857;BMP280;57147;53.582;10.112;2024-01-27T01:31:15;102573.44;;;5.20
69857;BMP280;57147;53.582;10.112;2024-01-27T01:36:15;102579.91;;;5.17
69857;BMP280;57147;53.582;10.112;2024-01-27T01:41:16;102594.09;;;5.16
69857;BMP280;57147;53.582;10.112;2024-01-27T01:46:17;102601.56;;;5.26
69857;BMP280;57147;53.582;10.112;2024-01-27T01:51:18;102625.28;;;5.26
69857;BMP280;57147;53.582;10.112;2024-01-27T01:56:18;102633.34;;;5.37
69857;BMP280;57147;53.582;10.112;2024-01-27T02:01:18;102627.06;;;5.38
69857;BMP280;57147;53.582;10.112;2024-01-27T02:06:21;102635.78;;;5.39
69857;BMP280;57147;53.582;10.112;2024-01-27T02:11:22;102641.50;;;5.36
69857;BMP280;57147;53.582;10.112;2024-01-27T02:16:22;102644.50;;;5.39
69857;BMP280;57147;53.582;10.112;2024-01-27T02:21:22;102650.78;;;5.45
69857;BMP280;57147;53.582;10.112;2024-01-27T02:26:22;102656.88;;;5.46
69857;BMP280;57147;53.582;10.112;2024-01-27T02:31:23;102655.03;;;5.39
69857;BMP280;57147;53.582;10.112;2024-01-27T02:36:23;102659.72;;;5.37
69857;BMP280;57147;53.582;10.112;2024-01-27T02:41:23;102636.22;;;5.16
69857;BMP280;57147;53.582;10.112;2024-01-27T02:46:23;102654.44;;;5.37
69857;BMP280;57147;53.582;10.112;2024-01-27T02:51:24;102671.47;;;5.35
69857;BMP280;57147;53.582;10.112;2024-01-27T02:56:24;102663.97;;;5.38
69857;BMP280;57147;53.582;10.112;2024-01-27T03:01:24;102673.50;;;5.33
69857;BMP280;57147;53.582;10.112;2024-01-27T03:06:24;102664.59;;;5.27
69857;BMP280;57147;53.582;10.112;2024-01-27T03:11:25;102665.81;;;5.18
69857;BMP280;57147;53.582;10.112;2024-01-27T03:16:25;102672.28;;;5.29
69857;BMP280;57147;53.582;10.112;2024-01-27T03:21:25;102661.75;;;5.29
69857;BMP280;57147;53.582;10.112;2024-01-27T03:26:25;102677.97;;;5.32
69857;BMP280;57147;53.582;10.112;2024-01-27T03:31:33;102676.75;;;5.15
69857;BMP280;57147;53.582;10.112;2024-01-27T03:36:33;102652.84;;;4.97
69857;BMP280;57147;53.582;10.112;2024-01-27T03:41:33;102685.28;;;5.24
69857;BMP280;57147;53.582;10.112;2024-01-27T03:46:33;102671.47;;;5.15
69857;BMP280;57147;53.582;10.112;2024-01-27T03:51:34;102691.34;;;5.24
69857;BMP280;57147;53.582;10.112;2024-01-27T03:56:34;102696.81;;;5.16
69857;BMP280;57147;53.582;10.112;2024-01-27T04:01:35;102691.13;;;5.19
69857;BMP280;57147;53.582;10.112;2024-01-27T04:06:39;102698.81;;;5.14
69857;BMP280;57147;53.582;10.112;2024-01-27T04:11:39;102708.34;;;5.15
69857;BMP280;57147;53.582;10.112;2024-01-27T04:16:39;102714.00;;;5.12
69857;BMP280;57147;53.582;10.112;2024-01-27T04:21:40;102705.72;;;5.15
69857;BMP280;57147;53.582;10.112;2024-01-27T04:26:40;102722.13;;;5.04
69857;BMP280;57147;53.582;10.112;2024-01-27T04:31:41;102714.44;;;5.09
69857;BMP280;57147;53.582;10.112;2024-01-27T04:36:41;102720.91;;;5.20
69857;BMP280;57147;53.582;10.112;2024-01-27T04:41:42;102714.84;;;5.19
69857;BMP280;57147;53.582;10.112;2024-01-27T04:46:42;102725.16;;;5.27
69857;BMP280;57147;53.582;10.112;2024-01-27T04:51:43;102739.97;;;5.28
69857;BMP280;57147;53.582;10.112;2024-01-27T04:56:43;102706.13;;;5.12
69857;BMP280;57147;53.582;10.112;2024-01-27T05:01:46;102733.06;;;4.94
69857;BMP280;57147;53.582;10.112;2024-01-27T05:06:47;102722.50;;;5.01
69857;BMP280;57147;53.582;10.112;2024-01-27T05:11:48;102713.78;;;4.68
69857;BMP280;57147;53.582;10.112;2024-01-27T05:16:48;102728.38;;;4.77
69857;BMP280;57147;53.582;10.112;2024-01-27T05:21:48;102729.81;;;4.79
69857;BMP280;57147;53.582;10.112;2024-01-27T05:26:48;102723.28;;;4.62
69857;BMP280;57147;53.582;10.112;2024-01-27T05:31:49;102741.50;;;4.63
69857;BMP280;57147;53.582;10.112;2024-01-27T05:36:49;102739.06;;;4.69
69857;BMP280;57147;53.582;10.112;2024-01-27T05:41:49;102756.13;;;4.79
69857;BMP280;57147;53.582;10.112;2024-01-27T05:46:49;102727.28;;;4.51
69857;BMP280;57147;53.582;10.112;2024-01-27T05:51:49;102741.31;;;4.72
69857;BMP280;57147;53.582;10.112;2024-01-27T05:56:50;102757.28;;;4.63
69857;BMP280;57147;53.582;10.112;2024-01-27T06:01:50;102761.75;;;4.63
69857;BMP280;57147;53.582;10.112;2024-01-27T06:06:50;102779.16;;;4.71
69857;BMP280;57147;53.582;10.112;2024-01-27T06:11:51;102769.06;;;4.74
69857;BMP280;57147;53.582;10.112;2024-01-27T06:16:51;102785.28;;;4.84
69857;BMP280;57147;53.582;10.112;2024-01-27T06:21:51;102796.63;;;4.85
69857;BMP280;57147;53.582;10.112;2024-01-27T06:26:51;102792.38;;;4.84
69857;BMP280;57147;53.582;10.112;2024-01-27T06:31:52;102792.19;;;4.92
69857;BMP280;57147;53.582;10.112;2024-01-27T06:36:52;102791.94;;;4.74
69857;BMP280;57147;53.582;10.112;2024-01-27T06:41:52;102791.94;;;4.74
69857;BMP280;57147;53.582;10.112;2024-01-27T06:46:52;102818.44;;;4.65
69857;BMP280;57147;53.582;10.112;2024-01-27T06:51:52;102820.44;;;4.63
69857;BMP280;57147;53.582;10.112;2024-01-27T06:56:53;102830.34;;;4.61
69857;BMP280;57147;53.582;10.112;2024-01-27T07:01:53;102830.53;;;4.53
69857;BMP280;57147;53.582;10.112;2024-01-27T07:06:53;102844.19;;;4.42
69857;BMP280;57147;53.582;10.112;2024-01-27T07:11:53;102847.88;;;4.48
69857;BMP280;57147;53.582;10.112;2024-01-27T07:16:54;102846.69;;;4.50
69857;BMP280;57147;53.582;10.112;2024-01-27T07:21:54;102854.69;;;4.36
69857;BMP280;57147;53.582;10.112;2024-01-27T07:26:54;102853.41;;;4.25
69857;BMP280;57147;53.582;10.112;2024-01-27T07:31:55;102851.38;;;4.27
69857;BMP280;57147;53.582;10.112;2024-01-27T07:36:55;102881.22;;;4.13
69857;BMP280;57147;53.582;10.112;2024-01-27T07:41:55;102869.81;;;3.99
69857;BMP280;57147;53.582;10.112;2024-01-27T07:46:56;102884.84;;;4.12
69857;BMP280;57147;53.582;10.112;2024-01-27T07:51:56;102888.13;;;4.14
69857;BMP280;57147;53.582;10.112;2024-01-27T07:56:56;102893.28;;;4.01
69857;BMP280;57147;53.582;10.112;2024-01-27T08:01:56;102878.78;;;4.11
69857;BMP280;57147;53.582;10.112;2024-01-27T08:06:57;102889.94;;;4.13
69857;BMP280;57147;53.582;10.112;2024-01-27T08:11:57;102893.00;;;4.17
69857;BMP280;57147;53.582;10.112;2024-01-27T08:16:57;102887.75;;;4.17
69857;BMP280;57147;53.582;10.112;2024-01-27T08:21:57;102845.38;;;3.77
69857;BMP280;57147;53.582;10.112;2024-01-27T08:26:58;102900.19;;;4.08
69857;BMP280;57147;53.582;10.112;2024-01-27T08:31:58;102900.59;;;4.05
69857;BMP280;57147;53.582;10.112;2024-01-27T08:37:00;102910.34;;;3.83
69857;BMP280;57147;53.582;10.112;2024-01-27T08:42:01;102916.66;;;3.89
69857;BMP280;57147;53.582;10.112;2024-01-27T08:47:01;102935.72;;;3.98
69857;BMP280;57147;53.582;10.112;2024-01-27T08:52:01;102945.03;;;4.00
69857;BMP280;57147;53.582;10.112;2024-01-27T08:57:02;102948.75;;;4.06
69857;BMP280;57147;53.582;10.112;2024-01-27T09:02:02;102953.38;;;4.04
69857;BMP280;57147;53.582;10.112;2024-01-27T09:07:03;102955.22;;;4.10
69857;BMP280;57147;53.582;10.112;2024-01-27T09:12:03;102968.63;;;4.15
69857;BMP280;57147;53.582;10.112;2024-01-27T09:17:03;102966.56;;;4.10
69857;BMP280;57147;53.582;10.112;2024-01-27T09:22:03;102974.06;;;4.35
69857;BMP280;57147;53.582;10.112;2024-01-27T09:27:04;102985.88;;;4.45
69857;BMP280;57147;53.582;10.112;2024-01-27T09:32:04;102980.72;;;4.58
69857;BMP280;57147;53.582;10.112;2024-01-27T09:37:05;102998.41;;;4.43
69857;BMP280;57147;53.582;10.112;2024-01-27T09:42:06;102989.78;;;4.49
69857;BMP280;57147;53.582;10.112;2024-01-27T09:47:07;103000.41;;;4.41
69857;BMP280;57147;53.582;10.112;2024-01-27T09:52:07;102980.25;;;4.48
69857;BMP280;57147;53.582;10.112;2024-01-27T09:57:09;103001.28;;;4.48
69857;BMP280;57147;53.582;10.112;2024-01-27T10:02:11;102999.41;;;4.63
69857;BMP280;57147;53.582;10.112;2024-01-27T10:07:11;103012.03;;;4.75
69857;BMP280;57147;53.582;10.112;2024-01-27T10:12:12;103011.69;;;4.91
69857;BMP280;57147;53.582;10.112;2024-01-27T10:17:22;102999.09;;;4.86
69857;BMP280;57147;53.582;10.112;2024-01-27T10:22:23;103023.59;;;5.15
69857;BMP280;57147;53.582;10.112;2024-01-27T10:27:23;103028.09;;;5.27
69857;BMP280;57147;53.582;10.112;2024-01-27T10:32:23;103053.31;;;5.36
69857;BMP280;57147;53.582;10.112;2024-01-27T10:37:24;103067.50;;;5.42
69857;BMP280;57147;53.582;10.112;2024-01-27T10:42:24;103069.72;;;5.38
69857;BMP280;57147;53.582;10.112;2024-01-27T10:47:29;103061.81;;;5.38
69857;BMP280;57147;53.582;10.112;2024-01-27T10:52:36;103035.38;;;5.60
69857;BMP280;57147;53.582;10.112;2024-01-27T10:57:37;103060.34;;;5.84
69857;BMP280;57147;53.582;10.112;2024-01-27T11:02:38;103081.06;;;5.93
69857;BMP280;57147;53.582;10.112;2024-01-27T11:07:39;103068.53;;;6.08
69857;BMP280;57147;53.582;10.112;2024-01-27T11:12:41;103066.13;;;6.27
69857;BMP280;57147;53.582;10.112;2024-01-27T11:17:42;103070.59;;;6.33
69857;BMP280;57147;53.582;10.112;2024-01-27T11:22:43;103081.97;;;6.33
69857;BMP280;57147;53.582;10.112;2024-01-27T11:27:45;103099.84;;;6.51
69857;BMP280;57147;53.582;10.112;2024-01-27T11:32:48;103116.88;;;6.81
69857;BMP280;57147;53.582;10.112;2024-01-27T11:37:49;103123.38;;;6.85
69857;BMP280;57147;53.582;10.112;2024-01-27T11:42:56;103115.63;;;7.04
69857;BMP280;57147;53.582;10.112;2024-01-27T11:47:57;103131.09;;;6.94
69857;BMP280;57147;53.582;10.112;2024-01-27T11:52:57;103134.75;;;6.99
69857;BMP280;57147;53.582;10.112;2024-01-27T11:57:57;103135.53;;;7.13
69857;BMP280;57147;53.582;10.112;2024-01-27T12:02:58;103141.59;;;7.33
69857;BMP280;57147;53.582;10.112;2024-01-27T12:07:58;103151.34;;;7.39
69857;BMP280;57147;53.582;10.112;2024-01-27T12:12:58;103157.00;;;7.49
69857;BMP280;57147;53.582;10.112;2024-01-27T12:17:58;103161.03;;;7.58
69857;BMP280;57147;53.582;10.112;2024-01-27T12:23:03;103170.03;;;7.44
69857;BMP280;57147;53.582;10.112;2024-01-27T12:28:16;103164.56;;;7.33
69857;BMP280;57147;53.582;10.112;2024-01-27T12:33:17;103147.81;;;7.58
69857;BMP280;57147;53.582;10.112;2024-01-27T12:38:18;103150.94;;;7.87
69857;BMP280;57147;53.582;10.112;2024-01-27T12:43:18;103147.94;;;7.77
69857;BMP280;57147;53.582;10.112;2024-01-27T12:48:18;103139.81;;;7.72
69857;BMP280;57147;53.582;10.112;2024-01-27T12:53:19;103153.63;;;7.80
69857;BMP280;57147;53.582;10.112;2024-01-27T12:58:19;103136.13;;;7.79
69857;BMP280;57147;53.582;10.112;2024-01-27T13:03:19;103135.22;;;7.92
69857;BMP280;57147;53.582;10.112;2024-01-27T13:08:20;103134.16;;;8.06
69857;BMP280;57147;53.582;10.112;2024-01-27T13:13:21;103144.63;;;8.26
69857;BMP280;57147;53.582;10.112;2024-01-27T13:18:21;103147.94;;;8.39
69857;BMP280;57147;53.582;10.112;2024-01-27T13:23:21;103134.09;;;8.37
69857;BMP280;57147;53.582;10.112;2024-01-27T13:28:22;103148.56;;;8.42
69857;BMP280;57147;53.582;10.112;2024-01-27T13:33:22;103155.75;;;8.34
69857;BMP280;57147;53.582;10.112;2024-01-27T13:38:22;103151.19;;;8.42
69857;BMP280;57147;53.582;10.112;2024-01-27T13:43:22;103152.50;;;8.57
69857;BMP280;57147;53.582;10.112;2024-01-27T13:48:23;103154.56;;;8.30
69857;BMP280;57147;53.582;10.112;2024-01-27T13:53:23;103161.56;;;8.18
69857;BMP280;57147;53.582;10.112;2024-01-27T13:58:23;103088.53;;;7.79
69857;BMP280;57147;53.582;10.112;2024-01-27T14:03:24;103158.28;;;7.85
69857;BMP280;57147;53.582;10.112;2024-01-27T14:08:24;103150.28;;;7.98
69857;BMP280;57147;53.582;10.112;2024-01-27T14:13:24;103169.69;;;8.23
69857;BMP280;57147;53.582;10.112;2024-01-27T14:18:25;103169.97;;;8.09
69857;BMP280;57147;53.582;10.112;2024-01-27T14:23:25;103158.38;;;8.03
69857;BMP280;57147;53.582;10.112;2024-01-27T14:28:25;103156.03;;;7.88
69857;BMP280;57147;53.582;10.112;2024-01-27T14:33:25;103143.50;;;7.71
69857;BMP280;57147;53.582;10.112;2024-01-27T14:38:26;103152.81;;;7.80
69857;BMP280;57147;53.582;10.112;2024-01-27T14:43:26;103157.25;;;7.86
69857;BMP280;57147;53.582;10.112;2024-01-27T14:48:26;103150.53;;;7.90
69857;BMP280;57147;53.582;10.112;2024-01-27T14:53:27;103141.03;;;7.76
69857;BMP280;57147;53.582;10.112;2024-01-27T14:58:28;103150.34;;;7.85
69857;BMP280;57147;53.582;10.112;2024-01-27T15:03:28;103145.91;;;7.79
69857;BMP280;57147;53.582;10.112;2024-01-27T15:08:28;103142.69;;;7.63
69857;BMP280;57147;53.582;10.112;2024-01-27T15:13:28;103152.88;;;7.60
69857;BMP280;57147;53.582;10.112;2024-01-27T15:18:29;103155.19;;;7.43
69857;BMP280;57147;53.582;10.112;2024-01-27T15:23:29;103152.09;;;7.46
69857;BMP280;57147;53.582;10.112;2024-01-27T15:28:30;103159.06;;;7.34
69857;BMP280;57147;53.582;10.112;2024-01-27T15:33:30;103140.81;;;7.19
69857;BMP280;57147;53.582;10.112;2024-01-27T15:38:30;103137.59;;;7.11
69857;BMP280;57147;53.582;10.112;2024-01-27T15:43:31;103155.88;;;7.19
69857;BMP280;57147;53.582;10.112;2024-01-27T15:48:34;103159.13;;;7.08
69857;BMP280;57147;53.582;10.112;2024-01-27T15:53:35;103159.53;;;6.92
69857;BMP280;57147;53.582;10.112;2024-01-27T15:58:35;103161.56;;;6.83
69857;BMP280;57147;53.582;10.112;2024-01-27T16:03:36;103170.91;;;6.72
69857;BMP280;57147;53.582;10.112;2024-01-27T16:08:36;103174.16;;;6.68
69857;BMP280;57147;53.582;10.112;2024-01-27T16:13:36;103168.88;;;6.61
69857;BMP280;57147;53.582;10.112;2024-01-27T16:18:37;103167.06;;;6.55
69857;BMP280;57147;53.582;10.112;2024-01-27T16:23:37;103144.31;;;6.34
69857;BMP280;57147;53.582;10.112;2024-01-27T16:28:37;103147.34;;;6.31
69857;BMP280;57147;53.582;10.112;2024-01-27T16:33:39;103165.59;;;6.33
69857;BMP280;57147;53.582;10.112;2024-01-27T16:38:40;103163.56;;;6.28
69857;BMP280;57147;53.582;10.112;2024-01-27T16:43:40;103176.94;;;6.27
69857;BMP280;57147;53.582;10.112;2024-01-27T16:48:40;103174.50;;;6.19
69857;BMP280;57147;53.582;10.112;2024-01-27T16:53:40;103158.63;;;6.05
69857;BMP280;57147;53.582;10.112;2024-01-27T16:58:41;103169.97;;;6.06
69857;BMP280;57147;53.582;10.112;2024-01-27T17:03:41;103175.25;;;5.99
69857;BMP280;57147;53.582;10.112;2024-01-27T17:08:41;103184.16;;;5.98
69857;BMP280;57147;53.582;10.112;2024-01-27T17:13:41;103181.47;;;5.92
69857;BMP280;57147;53.582;10.112;2024-01-27T17:18:42;103180.03;;;5.83
69857;BMP280;57147;53.582;10.112;2024-01-27T17:23:42;103179.19;;;5.82
69857;BMP280;57147;53.582;10.112;2024-01-27T17:28:42;103177.56;;;5.74
69857;BMP280;57147;53.582;10.112;2024-01-27T17:33:42;103183.63;;;5.68
69857;BMP280;57147;53.582;10.112;2024-01-27T17:38:43;103177.09;;;5.64
69857;BMP280;57147;53.582;10.112;2024-01-27T17:43:43;103180.72;;;5.57
69857;BMP280;57147;53.582;10.112;2024-01-27T17:48:43;103173.34;;;5.46
69857;BMP280;57147;53.582;10.112;2024-01-27T17:53:43;103182.50;;;5.50
69857;BMP280;57147;53.582;10.112;2024-01-27T17:58:43;103184.25;;;5.43
69857;BMP280;57147;53.582;10.112;2024-01-27T18:03:44;103181.44;;;5.44
69857;BMP280;57147;53.582;10.112;2024-01-27T18:08:44;103178.16;;;5.35
69857;BMP280;57147;53.582;10.112;2024-01-27T18:13:44;103188.88;;;5.34
69857;BMP280;57147;53.582;10.112;2024-01-27T18:18:44;103178.09;;;5.29
69857;BMP280;57147;53.582;10.112;2024-01-27T18:23:45;103187.00;;;5.28
69857;BMP280;57147;53.582;10.112;2024-01-27T18:28:45;103180.25;;;5.19
69857;BMP280;57147;53.582;10.112;2024-01-27T18:33:45;103180.81;;;5.14
69857;BMP280;57147;53.582;10.112;2024-01-27T18:38:45;103194.59;;;5.16
69857;BMP280;57147;53.582;10.112;2024-01-27T18:43:46;103188.53;;;5.16
69857;BMP280;57147;53.582;10.112;2024-01-27T18:48:46;103188.09;;;5.12
69857;BMP280;57147;53.582;10.112;2024-01-27T18:53:46;103182.59;;;5.07
69857;BMP280;57147;53.582;10.112;2024-01-27T18:58:46;103193.88;;;5.01
69857;BMP280;57147;53.582;10.112;2024-01-27T19:03:47;103178.44;;;4.98
69857;BMP280;57147;53.582;10.112;2024-01-27T19:08:47;103186.59;;;5.03
69857;BMP280;57147;53.582;10.112;2024-01-27T19:13:48;103191.22;;;5.01
69857;BMP280;57147;53.582;10.112;2024-01-27T19:18:48;103207.81;;;4.95
69857;BMP280;57147;53.582;10.112;2024-01-27T19:23:49;103212.44;;;4.93
69857;BMP280;57147;53.582;10.112;2024-01-27T19:28:49;103218.25;;;4.82
69857;BMP280;57147;53.582;10.112;2024-01-27T19:33:49;103220.25;;;4.80
69857;BMP280;57147;53.582;10.112;2024-01-27T19:38:50;103218.06;;;4.69
69857;BMP280;57147;53.582;10.112;2024-01-27T19:43:50;103226.59;;;4.71
69857;BMP280;57147;53.582;10.112;2024-01-27T19:48:50;103219.09;;;4.68
69857;BMP280;57147;53.582;10.112;2024-01-27T19:53:50;103226.38;;;4.65
69857;BMP280;57147;53.582;10.112;2024-01-27T19:58:51;103217.56;;;4.58
69857;BMP280;57147;53.582;10.112;2024-01-27T20:03:51;103223.28;;;4.62
69857;BMP280;57147;53.582;10.112;2024-01-27T20:08:51;103228.34;;;4.63
69857;BMP280;57147;53.582;10.112;2024-01-27T20:13:51;103236.63;;;4.60
69857;BMP280;57147;53.582;10.112;2024-01-27T20:18:52;103227.84;;;4.53
69857;BMP280;57147;53.582;10.112;2024-01-27T20:23:52;103246.63;;;4.50
69857;BMP280;57147;53.582;10.112;2024-01-27T20:28:53;103243.09;;;4.43
69857;BMP280;57147;53.582;10.112;2024-01-27T20:33:53;103249.00;;;4.45
69857;BMP280;57147;53.582;10.112;2024-01-27T20:38:54;103227.78;;;4.32
69857;BMP280;57147;53.582;10.112;2024-01-27T20:43:54;103245.72;;;4.43
69857;BMP280;57147;53.582;10.112;2024-01-27T20:48:55;103216.91;;;4.20
69857;BMP280;57147;53.582;10.112;2024-01-27T20:53:55;103234.31;;;4.36
69857;BMP280;57147;53.582;10.112;2024-01-27T20:58:55;103176.84;;;4.04
69857;BMP280;57147;53.582;10.112;2024-01-27T21:03:55;103248.47;;;4.35
69857;BMP280;57147;53.582;10.112;2024-01-27T21:08:56;103248.19;;;4.30
69857;BMP280;57147;53.582;10.112;2024-01-27T21:13:56;103259.34;;;4.32
69857;BMP280;57147;53.582;10.112;2024-01-27T21:18:56;103259.25;;;4.25
69857;BMP280;57147;53.582;10.112;2024-01-27T21:23:56;103250.28;;;4.20
69857;BMP280;57147;53.582;10.112;2024-01-27T21:28:57;103252.28;;;4.18
69857;BMP280;57147;53.582;10.112;2024-01-27T21:33:57;103205.34;;;3.85
69857;BMP280;57147;53.582;10.112;2024-01-27T21:38:58;103256.91;;;4.16
69857;BMP280;57147;53.582;10.112;2024-01-27T21:43:58;103239.66;;;4.13
69857;BMP280;57147;53.582;10.112;2024-01-27T21:48:58;103246.38;;;4.01
69857;BMP280;57147;53.582;10.112;2024-01-27T21:53:58;103223.63;;;3.93
69857;BMP280;57147;53.582;10.112;2024-01-27T21:58:59;103226.38;;;3.85
69857;BMP280;57147;53.582;10.112;2024-01-27T22:04:00;103231.06;;;3.90
69857;BMP280;57147;53.582;10.112;2024-01-27T22:09:00;103228.00;;;3.86
69857;BMP280;57147;53.582;10.112;2024-01-27T22:14:00;103226.84;;;3.89
69857;BMP280;57147;53.582;10.112;2024-01-27T22:19:01;103230.19;;;3.98
69857;BMP280;57147;53.582;10.112;2024-01-27T22:24:01;103229.53;;;3.96
69857;BMP280;57147;53.582;10.112;2024-01-27T22:29:01;103243.56;;;4.03
69857;BMP280;57147;53.582;10.112;2024-01-27T22:34:01;103248.91;;;3.80
69857;BMP280;57147;53.582;10.112;2024-01-27T22:39:02;103248.81;;;3.73
69857;BMP280;57147;53.582;10.112;2024-01-27T22:44:02;103248.47;;;3.76
69857;BMP280;57147;53.582;10.112;2024-01-27T22:49:02;103261.09;;;3.58
69857;BMP280;57147;53.582;10.112;2024-01-27T22:54:03;103249.34;;;3.54
69857;BMP280;57147;53.582;10.112;2024-01-27T22:59:03;103249.22;;;3.47
69857;BMP280;57147;53.582;10.112;2024-01-27T23:04:03;103252.16;;;3.30
69857;BMP280;57147;53.582;10.112;2024-01-27T23:09:03;103250.84;;;3.26
69857;BMP280;57147;53.582;10.112;2024-01-27T23:14:04;103249.91;;;3.18
69857;BMP280;57147;53.582;10.112;2024-01-27T23:19:04;103257.78;;;3.18
69857;BMP280;57147;53.582;10.112;2024-01-27T23:24:05;103244.16;;;3.00
69857;BMP280;57147;53.582;10.112;2024-01-27T23:29:05;103248.75;;;2.98
69857;BMP280;57147;53.582;10.112;2024-01-27T23:34:05;103240.88;;;2.98
69857;BMP280;57147;53.582;10.112;2024-01-27T23:39:05;103248.16;;;2.88
69857;BMP280;57147;53.582;10.112;2024-01-27T23:44:06;103239.03;;;2.76
69857;BMP280;57147;53.582;10.112;2024-01-27T23:49:06;103239.03;;;2.76
69857;BMP280;57147;53.582;10.112;2024-01-27T23:54:06;103233.28;;;2.80
69857;BMP280;57147;53.582;10.112;2024-01-27T23:59:09;103240.66;;;2.77
